Gore Bay Manitoulin Airport
CYZE : now visible

Airfield :











YOU CAN JOIN US ON...

 
LOGIN :

Register | Disclaimer

   EN    FR    IT 

 









Legend :    VFR   Marginal VFR   IFR   Intensive IFR   Very Intensive IFR
Visi :
Ceiling :
>= 8 km
>= 3000ft
5 to 8 km
1000 to 3000 ft
1500m to 5 km
500 to 1000 ft
800 to 1500m
200 to 500 ft
< 800m
< 200 ft
Symbols :   Thunderstorms  Fog  Heavy snow  Heavy precipitations  Wind > 20 kt






- Airport Elevation : 635 ft
- IATA code : YZE


CYZE - Gore Bay Manitoulin

CURRENT METAR :
  • 190400Z AUTO 05012G17KT 6SM -SN SCT014 OVC025 M11/M13 A2955 RMK SLP021

EXPIRED METARs :
  • 190300Z AUTO 05013G20KT 3SM -SN OVC027 M10/M13 A2952 RMK SLP012
  • 190251Z AUTO 04015G22KT 2 1/2SM -SN SCT018 OVC029 M10/M13 A2952 RMK VIS VRB 2-3 SLP010
  • 190238Z AUTO 04012G18KT 2SM -SN BKN016 OVC029 M10/M12 A2951 RMK VIS VRB 1 1/2-2 1/2 SLP008
  • 190220Z AUTO 05014G21KT 1 3/4SM -SN OVC014 M10/M12 A2950 RMK VIS VRB 1 1/2-2 1/2 SLP005
  • 190211Z AUTO 05014G19KT 2 1/4SM -SN OVC016 M10/M12 A2950 RMK SLP003
  • 190200Z AUTO 05015KT 3SM -SN OVC020 M10/M12 A2949 RMK SLP001
  • 190137Z AUTO 05012G18KT 3SM -SN BKN018 OVC030 M10/M12 A2948 RMK SLP998

Expired Forecast.



MET'MAP, your aeronautical weather chart ! - Copyright ORBIFLY December 2007 - Disclaimer

ORBIFLY MET'MAP TEAM :

Programming & Development : Alexandra Zaïnal
Concept & original design : Baudouin d'Aumeries
Assistance for programming : Marc-Olivier Méhu
Technical & hardware support : Manuel Goepfert

Contact : metmap@orbifly.com




SOURCES & CREDITS :

   NOAA       Earth
Advisory